createdAt,value
2019-04-06T00:00:42.011Z,83.84
2019-04-06T00:03:13.685Z,84.31
2019-04-06T00:05:45.487Z,81.88
2019-04-06T00:08:17.559Z,84.48
2019-04-06T00:10:48.988Z,84.99
2019-04-06T00:13:21.772Z,84.78
2019-04-06T00:15:53.091Z,85.94
2019-04-06T00:18:24.514Z,85.35
2019-04-06T00:20:55.943Z,82.12
2019-04-06T00:23:28.715Z,82.88
2019-04-06T00:26:00.986Z,83.67
2019-04-06T00:28:32.999Z,84.66
2019-04-06T00:31:12.981Z,85.76
2019-04-06T00:33:44.613Z,84.26
2019-04-06T00:36:16.370Z,84.66
2019-04-06T00:38:50.087Z,83.98
2019-04-06T00:41:22.035Z,84.51
2019-04-06T00:43:53.790Z,86.02
2019-04-06T00:46:26.432Z,84.83
2019-04-06T00:48:57.966Z,83.67
2019-04-06T00:51:29.417Z,83.71
2019-04-06T00:54:00.888Z,83.08
2019-04-06T00:56:33.253Z,83.35
2019-04-06T00:59:05.620Z,82.00
2019-04-06T01:01:37.732Z,83.18
2019-04-06T01:04:09.564Z,82.69
2019-04-06T01:06:40.942Z,82.72
2019-04-06T01:09:12.401Z,80.51
2019-04-06T01:11:44.019Z,81.40
2019-04-06T01:14:15.485Z,83.96
2019-04-06T01:16:46.972Z,82.31
2019-04-06T01:19:18.353Z,81.86
2019-04-06T01:21:50.393Z,84.07
2019-04-06T01:24:22.588Z,80.84
2019-04-06T01:26:54.149Z,80.32
2019-04-06T01:29:25.986Z,81.52
2019-04-06T01:31:58.592Z,80.72
2019-04-06T01:34:31.383Z,80.84
2019-04-06T01:37:03.324Z,80.41
2019-04-06T01:39:37.191Z,80.63
2019-04-06T01:42:09.240Z,81.38
2019-04-06T01:44:41.803Z,83.41
2019-04-06T01:47:13.203Z,84.07
2019-04-06T01:49:45.210Z,84.26
2019-04-06T01:52:16.655Z,82.75
2019-04-06T01:54:48.974Z,80.15
2019-04-06T01:57:21.496Z,80.89
2019-04-06T01:59:53.818Z,81.61
2019-04-06T02:02:34.645Z,80.69
2019-04-06T02:05:07.058Z,81.15
2019-04-06T02:07:40.273Z,82.03
2019-04-06T02:10:12.334Z,81.30
2019-04-06T02:16:20.088Z,83.77
2019-04-06T02:18:52.101Z,80.06
2019-04-06T02:21:24.253Z,83.64
2019-04-06T02:23:56.062Z,82.61
2019-04-06T02:26:30.567Z,81.59
2019-04-06T02:29:01.611Z,80.72
2019-04-06T02:32:04.183Z,82.87
2019-04-06T02:35:09.955Z,81.06
2019-04-06T02:37:50.325Z,80.72
2019-04-06T02:40:44.460Z,81.72
2019-04-06T02:43:25.031Z,80.83
2019-04-06T02:45:56.872Z,80.83
2019-04-06T02:48:28.376Z,82.79
2019-04-06T02:50:59.931Z,80.96
2019-04-06T02:53:31.345Z,82.49
2019-04-06T02:56:03.170Z,86.71
2019-04-06T02:58:35.750Z,87.60
2019-04-06T03:01:07.728Z,85.67
2019-04-06T03:03:39.466Z,83.70
2019-04-06T03:06:11.096Z,84.07
2019-04-06T03:08:43.297Z,81.95
2019-04-06T03:11:14.769Z,82.17
2019-04-06T03:13:46.894Z,81.51
2019-04-06T03:16:18.942Z,81.05
2019-04-06T03:18:50.325Z,81.32
2019-04-06T03:21:22.207Z,80.78
2019-04-06T03:23:53.894Z,80.67
2019-04-06T03:26:25.375Z,81.30
2019-04-06T03:28:59.534Z,81.31
2019-04-06T03:31:31.460Z,81.70
2019-04-06T03:34:03.624Z,81.20
2019-04-06T03:36:35.646Z,81.29
2019-04-06T03:39:08.513Z,81.13
2019-04-06T03:41:41.437Z,82.19
2019-04-06T03:44:13.221Z,85.48
2019-04-06T03:46:45.538Z,83.33
2019-04-06T03:49:17.288Z,82.36
2019-04-06T03:51:49.354Z,84.48
2019-04-06T03:54:21.051Z,84.03
2019-04-06T03:56:52.832Z,85.23
2019-04-06T03:59:24.172Z,83.42
2019-04-06T04:01:55.426Z,81.57
2019-04-06T04:04:26.748Z,82.01
2019-04-06T04:06:58.228Z,81.81
2019-04-06T04:09:29.584Z,81.24
2019-04-06T04:12:02.222Z,82.11
2019-04-06T04:14:34.311Z,82.74
2019-04-06T04:17:05.761Z,82.55
2019-04-06T04:19:37.712Z,84.08
2019-04-06T04:22:09.500Z,83.91
2019-04-06T04:24:41.196Z,81.49
2019-04-06T04:27:12.447Z,81.66
2019-04-06T04:29:44.241Z,84.98
2019-04-06T04:32:15.624Z,83.45
2019-04-06T04:34:47.691Z,82.04
2019-04-06T04:37:19.429Z,82.71
2019-04-06T04:39:50.746Z,82.29
2019-04-06T04:42:22.009Z,81.69
2019-04-06T04:44:53.692Z,84.33
2019-04-06T04:47:25.494Z,83.73
2019-04-06T04:49:56.754Z,82.30
2019-04-06T04:52:28.186Z,82.89
2019-04-06T04:55:00.325Z,83.39
2019-04-06T04:57:40.111Z,84.32
2019-04-06T05:00:05.675Z,84.14
2019-04-06T05:02:36.988Z,82.51
2019-04-06T05:05:09.676Z,82.66
2019-04-06T05:07:41.591Z,81.53
2019-04-06T05:10:13.349Z,80.75
2019-04-06T05:12:45.012Z,82.41
2019-04-06T05:15:23.221Z,82.77
2019-04-06T05:17:55.301Z,84.10
2019-04-06T05:20:26.943Z,82.83
2019-04-06T05:22:58.695Z,82.06
2019-04-06T05:25:30.023Z,82.42
2019-04-06T05:28:01.758Z,81.63
2019-04-06T05:30:33.439Z,81.56
2019-04-06T05:33:05.100Z,82.03
2019-04-06T05:35:36.851Z,82.69
2019-04-06T05:38:09.377Z,81.33
2019-04-06T05:40:40.692Z,81.43
2019-04-06T05:43:12.449Z,83.70
2019-04-06T05:45:44.542Z,84.12
2019-04-06T05:48:16.354Z,84.98
2019-04-06T05:50:47.626Z,85.70
2019-04-06T05:53:20.694Z,84.44
2019-04-06T05:55:52.481Z,82.64
2019-04-06T05:58:23.882Z,82.00
2019-04-06T06:00:55.530Z,81.70
2019-04-06T06:03:27.875Z,83.18
2019-04-06T06:05:59.596Z,85.41
2019-04-06T06:08:31.278Z,86.44
2019-04-06T06:11:02.844Z,87.85
2019-04-06T06:13:34.228Z,87.79
2019-04-06T06:16:06.116Z,87.71
2019-04-06T06:18:38.073Z,88.40
2019-04-06T06:21:09.352Z,88.54
2019-04-06T06:23:41.591Z,88.57
2019-04-06T06:26:12.903Z,89.12
2019-04-06T06:28:44.663Z,87.87
2019-04-06T06:31:16.188Z,88.06
2019-04-06T06:33:47.728Z,87.49
2019-04-06T06:36:19.175Z,86.92
2019-04-06T06:38:50.526Z,87.55
2019-04-06T06:41:22.008Z,87.47
2019-04-06T06:43:53.490Z,87.73
2019-04-06T06:46:25.061Z,87.38
2019-04-06T06:48:57.322Z,87.44
2019-04-06T06:51:29.192Z,87.29
2019-04-06T06:54:00.733Z,87.68
2019-04-06T06:56:32.179Z,88.08
2019-04-06T06:59:03.948Z,88.25
2019-04-06T07:01:35.356Z,87.99
2019-04-06T07:04:06.648Z,88.16
2019-04-06T07:06:37.916Z,87.76
2019-04-06T07:09:10.114Z,87.54
2019-04-06T07:11:41.404Z,87.46
2019-04-06T07:14:12.775Z,87.58
2019-04-06T07:16:44.737Z,87.27
2019-04-06T07:19:16.357Z,87.31
2019-04-06T07:21:48.999Z,86.92
2019-04-06T07:24:20.393Z,86.66
2019-04-06T07:26:51.663Z,86.73
2019-04-06T07:29:23.078Z,86.48
2019-04-06T07:31:54.415Z,86.27
2019-04-06T07:34:25.804Z,85.49
2019-04-06T07:36:57.364Z,85.66
2019-04-06T07:39:29.092Z,85.50
2019-04-06T07:42:00.391Z,85.11
2019-04-06T07:44:32.147Z,84.88
2019-04-06T07:47:03.417Z,84.88
2019-04-06T07:49:35.679Z,84.90
2019-04-06T07:52:06.917Z,85.14
2019-04-06T07:54:39.258Z,85.02
2019-04-06T07:57:11.390Z,84.93
2019-04-06T07:59:43.478Z,84.58
2019-04-06T08:02:15.233Z,83.73
2019-04-06T08:04:46.655Z,84.24
2019-04-06T08:07:18.488Z,84.01
2019-04-06T08:09:50.309Z,83.52
2019-04-06T08:12:21.668Z,83.94
2019-04-06T08:14:53.328Z,83.55
2019-04-06T08:17:24.684Z,82.82
2019-04-06T08:19:56.530Z,82.27
2019-04-06T08:22:27.861Z,81.80
2019-04-06T08:24:59.195Z,81.65
2019-04-06T08:27:30.888Z,81.54
2019-04-06T08:30:03.515Z,81.56
2019-04-06T08:32:34.863Z,81.11
2019-04-06T08:35:07.043Z,80.33
2019-04-06T08:37:38.404Z,80.62
2019-04-06T08:40:09.994Z,80.23
2019-04-06T08:42:41.663Z,80.26
2019-04-06T08:45:14.587Z,80.18
2019-04-06T08:47:46.033Z,80.35
2019-04-06T08:50:18.060Z,79.40
2019-04-06T08:52:49.431Z,78.50
2019-04-06T08:55:20.781Z,78.04
2019-04-06T08:57:52.536Z,77.08
2019-04-06T09:00:24.494Z,77.01
2019-04-06T09:02:56.935Z,77.17
2019-04-06T09:05:28.656Z,76.04
2019-04-06T09:08:00.332Z,75.14
2019-04-06T09:10:33.174Z,73.88
2019-04-06T09:13:04.430Z,73.77
2019-04-06T09:15:36.026Z,73.42
2019-04-06T09:18:07.474Z,72.01
2019-04-06T09:20:39.560Z,69.62
2019-04-06T09:23:11.521Z,69.97
2019-04-06T09:25:43.025Z,69.51
2019-04-06T09:28:14.448Z,68.30
2019-04-06T09:30:46.771Z,67.03
2019-04-06T09:33:19.225Z,67.38
2019-04-06T09:35:51.151Z,64.41
2019-04-06T09:38:24.532Z,63.12
2019-04-06T09:40:56.672Z,66.96
2019-04-06T09:43:28.738Z,64.44
2019-04-06T09:46:16.796Z,62.90
2019-04-06T09:49:10.429Z,61.93
2019-04-06T09:52:09.615Z,61.84
2019-04-06T09:54:55.485Z,61.09
2019-04-06T09:58:01.505Z,60.16
2019-04-06T10:00:54.717Z,61.96
2019-04-06T10:03:54.750Z,57.13
2019-04-06T10:06:44.908Z,57.84
2019-04-06T10:09:34.216Z,56.38
2019-04-06T10:12:24.630Z,59.08
2019-04-06T10:15:16.118Z,56.58
2019-04-06T10:18:15.785Z,55.81
2019-04-06T10:20:56.637Z,56.66
2019-04-06T10:23:49.953Z,54.50
2019-04-06T10:26:34.461Z,53.13
2019-04-06T10:29:28.298Z,52.34
2019-04-06T10:32:27.311Z,52.75
2019-04-06T10:35:35.812Z,51.51
2019-04-06T10:38:38.804Z,51.76
2019-04-06T10:41:35.231Z,52.01
2019-04-06T10:44:37.694Z,48.85
2019-04-06T10:47:33.621Z,50.11
2019-04-06T10:50:33.674Z,49.17
2019-04-06T10:53:27.115Z,48.80
2019-04-06T10:56:05.760Z,46.94
2019-04-06T10:59:03.692Z,48.70
2019-04-06T11:01:57.051Z,46.58
2019-04-06T11:04:36.026Z,48.57
2019-04-06T11:07:26.972Z,49.21
2019-04-06T11:10:26.450Z,48.37
2019-04-06T11:13:15.850Z,45.21
2019-04-06T11:16:25.274Z,47.07
2019-04-06T11:19:10.576Z,45.31
2019-04-06T11:22:00.342Z,45.02
2019-04-06T11:24:57.796Z,44.36
2019-04-06T11:27:51.147Z,43.80
2019-04-06T11:30:44.141Z,46.34
2019-04-06T11:33:34.903Z,43.89
2019-04-06T11:36:25.549Z,43.58
2019-04-06T11:39:17.483Z,44.82
2019-04-06T11:42:14.260Z,45.26
2019-04-06T11:45:13.491Z,43.74
2019-04-06T11:48:10.017Z,42.71
2019-04-06T11:50:56.704Z,43.65
2019-04-06T11:53:37.422Z,42.50
2019-04-06T11:56:26.119Z,42.15
2019-04-06T11:59:24.530Z,38.96
2019-04-06T12:02:17.744Z,38.07
2019-04-06T12:05:10.993Z,40.17
2019-04-06T12:07:55.651Z,38.35
2019-04-06T12:10:48.443Z,38.66
2019-04-06T12:13:36.989Z,38.21
2019-04-06T12:16:26.226Z,38.66
2019-04-06T12:19:31.761Z,38.63
2019-04-06T12:22:28.428Z,40.24
2019-04-06T12:25:17.430Z,40.57
2019-04-06T12:28:11.202Z,37.14
2019-04-06T12:31:07.750Z,36.90
2019-04-06T12:33:58.755Z,36.90
2019-04-06T12:36:58.009Z,39.65
2019-04-06T12:39:53.036Z,37.01
2019-04-06T12:42:40.902Z,37.04
2019-04-06T12:45:31.592Z,37.64
2019-04-06T12:48:32.629Z,35.82
2019-04-06T12:51:22.988Z,39.02
2019-04-06T12:54:01.129Z,36.10
2019-04-06T12:56:52.141Z,38.54
2019-04-06T12:59:49.028Z,37.88
2019-04-06T13:02:30.486Z,39.00
2019-04-06T13:05:35.793Z,38.10
2019-04-06T13:08:29.344Z,38.86
2019-04-06T13:11:16.125Z,39.64
2019-04-06T13:14:04.231Z,36.63
2019-04-06T13:17:06.825Z,36.14
2019-04-06T13:20:04.605Z,37.75
2019-04-06T13:23:13.164Z,39.06
2019-04-06T13:26:07.502Z,37.55
2019-04-06T13:29:04.650Z,36.10
2019-04-06T13:31:56.300Z,37.72
2019-04-06T13:34:56.115Z,36.21
2019-04-06T13:37:45.889Z,36.54
2019-04-06T13:40:33.899Z,36.24
2019-04-06T13:43:17.744Z,38.38
2019-04-06T13:46:16.949Z,37.92
2019-04-06T13:49:07.951Z,37.17
2019-04-06T13:51:48.020Z,38.99
2019-04-06T13:54:36.942Z,35.30
2019-04-06T13:57:23.239Z,36.48
2019-04-06T14:00:01.969Z,35.03
2019-04-06T14:02:39.401Z,35.02
2019-04-06T14:05:27.328Z,34.74
2019-04-06T14:08:20.338Z,36.98
2019-04-06T14:10:58.893Z,34.55
2019-04-06T14:13:36.486Z,36.69
2019-04-06T14:16:42.350Z,35.27
2019-04-06T14:19:36.023Z,36.02
2019-04-06T14:22:29.192Z,36.28
2019-04-06T14:25:20.853Z,37.50
2019-04-06T14:28:11.513Z,35.39
2019-04-06T14:30:59.925Z,34.63
2019-04-06T14:33:49.328Z,34.53
2019-04-06T14:36:48.669Z,34.74
2019-04-06T14:39:45.170Z,35.67
2019-04-06T14:42:38.429Z,35.52
2019-04-06T14:45:26.161Z,35.14
2019-04-06T14:48:15.621Z,35.50
2019-04-06T14:51:05.916Z,38.62
2019-04-06T14:53:59.062Z,36.81
2019-04-06T14:56:52.495Z,35.48
2019-04-06T14:59:50.163Z,36.13
2019-04-06T15:02:35.388Z,35.44
2019-04-06T15:05:24.248Z,36.48
2019-04-06T15:08:17.912Z,36.38
2019-04-06T15:11:12.220Z,37.43
2019-04-06T15:14:02.043Z,35.61
2019-04-06T15:17:07.695Z,35.44
2019-04-06T15:20:13.027Z,34.41
2019-04-06T15:23:02.348Z,35.18
2019-04-06T15:25:55.881Z,37.22
2019-04-06T15:28:52.982Z,36.97
2019-04-06T15:32:02.115Z,37.55
2019-04-06T15:34:55.384Z,39.11
2019-04-06T15:37:45.965Z,38.45
2019-04-06T15:40:41.396Z,38.30
2019-04-06T15:43:44.475Z,40.53
2019-04-06T15:46:47.402Z,38.11
2019-04-06T15:49:40.754Z,39.07
2019-04-06T15:52:43.074Z,38.83
2019-04-06T15:55:35.311Z,40.65
2019-04-06T15:58:24.364Z,40.80
2019-04-06T16:01:05.387Z,39.44
2019-04-06T16:04:06.566Z,40.25
2019-04-06T16:06:47.302Z,40.11
2019-04-06T16:09:37.526Z,41.42
2019-04-06T16:12:40.390Z,39.09
2019-04-06T16:15:18.697Z,39.41
2019-04-06T16:18:09.082Z,39.16
2019-04-06T16:20:58.296Z,39.97
2019-04-06T16:23:47.304Z,40.87
2019-04-06T16:26:22.420Z,40.59
2019-04-06T16:29:25.069Z,43.31
2019-04-06T16:32:32.925Z,40.80
2019-04-06T16:35:19.717Z,42.22
2019-04-06T16:38:13.185Z,40.51
2019-04-06T16:41:07.578Z,40.37
2019-04-06T16:44:01.502Z,41.39
2019-04-06T16:46:49.782Z,40.12
2019-04-06T16:49:38.791Z,40.31
2019-04-06T16:52:21.892Z,42.22
2019-04-06T16:54:59.983Z,41.45
2019-04-06T16:57:59.611Z,43.96
2019-04-06T17:00:58.930Z,41.91
2019-04-06T17:03:55.604Z,42.74
2019-04-06T17:06:52.202Z,47.29
2019-04-06T17:09:43.515Z,42.37
2019-04-06T17:12:40.399Z,44.42
2019-04-06T17:15:40.111Z,41.29
2019-04-06T17:18:22.233Z,41.57
2019-04-06T17:21:00.056Z,42.48
2019-04-06T17:23:49.239Z,46.10
2019-04-06T17:26:39.521Z,46.06
2019-04-06T17:29:36.506Z,43.15
2019-04-06T17:32:16.063Z,43.28
2019-04-06T17:35:04.962Z,45.59
2019-04-06T17:37:55.997Z,42.07
2019-04-06T17:40:47.205Z,42.18
2019-04-06T17:43:37.443Z,45.93
2019-04-06T17:46:21.077Z,43.68
2019-04-06T17:49:14.385Z,42.36
2019-04-06T17:52:06.818Z,44.83
2019-04-06T17:55:06.237Z,43.54
2019-04-06T17:57:55.109Z,42.96
2019-04-06T18:00:45.463Z,44.95
2019-04-06T18:03:35.691Z,43.87
2019-04-06T18:06:35.105Z,44.24
2019-04-06T18:09:27.363Z,45.34
2019-04-06T18:12:30.065Z,47.75
2019-04-06T18:15:02.046Z,45.53
2019-04-06T18:17:33.765Z,45.53
2019-04-06T18:20:06.009Z,47.51
2019-04-06T18:22:38.170Z,45.75
2019-04-06T18:25:09.845Z,46.50
2019-04-06T18:27:41.199Z,47.85
2019-04-06T18:30:12.923Z,47.28
2019-04-06T18:33:03.046Z,47.07
2019-04-06T18:35:34.088Z,48.67
2019-04-06T18:38:27.553Z,48.07
2019-04-06T18:40:59.309Z,46.55
2019-04-06T18:43:30.671Z,46.30
2019-04-06T18:46:02.475Z,46.30
2019-04-06T18:48:33.874Z,45.26
2019-04-06T18:51:06.539Z,48.01
2019-04-06T18:53:38.830Z,48.53
2019-04-06T18:56:10.814Z,47.58
2019-04-06T18:58:42.472Z,46.40
2019-04-06T19:01:13.846Z,46.84
2019-04-06T19:03:45.549Z,50.21
2019-04-06T19:06:17.870Z,49.30
2019-04-06T19:08:50.201Z,49.83
2019-04-06T19:11:21.913Z,48.55
2019-04-06T19:13:53.804Z,52.14
2019-04-06T19:16:25.635Z,49.36
2019-04-06T19:18:57.055Z,50.46
2019-04-06T19:21:30.399Z,48.06
2019-04-06T19:24:02.245Z,49.83
2019-04-06T19:26:37.065Z,47.77
2019-04-06T19:29:07.339Z,48.23
2019-04-06T19:31:38.891Z,47.99
2019-04-06T19:34:10.294Z,48.32
2019-04-06T19:36:41.656Z,49.48
2019-04-06T19:39:16.074Z,49.84
2019-04-06T19:41:48.276Z,49.84
2019-04-06T19:44:19.610Z,48.92
2019-04-06T19:46:51.587Z,50.22
2019-04-06T19:49:23.092Z,49.13
2019-04-06T19:51:54.746Z,49.36
2019-04-06T19:54:26.861Z,51.35
2019-04-06T19:56:59.231Z,50.66
2019-04-06T19:59:31.576Z,50.56
2019-04-06T20:02:03.061Z,50.04
2019-04-06T20:04:34.546Z,50.54
2019-04-06T20:07:10.960Z,50.08
2019-04-06T20:09:42.175Z,50.11
2019-04-06T20:12:14.135Z,50.28
2019-04-06T20:14:46.040Z,50.73
2019-04-06T20:17:17.879Z,50.76
2019-04-06T20:19:49.856Z,51.32
2019-04-06T20:22:21.687Z,51.27
2019-04-06T20:24:53.272Z,50.38
2019-04-06T20:27:24.614Z,50.77
2019-04-06T20:29:56.393Z,52.02
2019-04-06T20:32:28.293Z,51.37
2019-04-06T20:34:59.600Z,52.30
2019-04-06T20:37:30.893Z,52.32
2019-04-06T20:40:02.781Z,53.14
2019-04-06T20:42:34.894Z,52.40
2019-04-06T20:45:06.706Z,55.05
2019-04-06T20:47:38.610Z,53.02
2019-04-06T20:50:10.470Z,55.55
2019-04-06T20:52:42.619Z,53.06
2019-04-06T20:55:14.689Z,53.08
2019-04-06T20:57:46.155Z,53.74
2019-04-06T21:00:18.762Z,55.91
2019-04-06T21:02:52.271Z,53.22
2019-04-06T21:05:24.861Z,53.30
2019-04-06T21:07:56.662Z,54.05
2019-04-06T21:10:28.399Z,53.96
2019-04-06T21:12:59.915Z,54.64
2019-04-06T21:15:31.911Z,54.75
2019-04-06T21:18:04.388Z,55.70
2019-04-06T21:20:35.761Z,54.50
2019-04-06T21:23:07.340Z,55.69
2019-04-06T21:25:42.947Z,54.90
2019-04-06T21:28:14.598Z,54.38
2019-04-06T21:30:46.665Z,55.05
2019-04-06T21:33:18.658Z,55.05
2019-04-06T21:35:50.171Z,54.90
2019-04-06T21:38:22.809Z,55.61
2019-04-06T21:40:55.191Z,55.56
2019-04-06T21:43:26.552Z,56.25
2019-04-06T21:45:58.424Z,56.44
2019-04-06T21:48:30.191Z,56.94
2019-04-06T21:51:01.904Z,56.81
2019-04-06T21:53:33.207Z,56.80
2019-04-06T21:56:07.367Z,57.44
2019-04-06T21:58:38.129Z,57.23
2019-04-06T22:01:11.931Z,56.73
2019-04-06T22:03:43.927Z,57.71
2019-04-06T22:06:16.166Z,57.63
2019-04-06T22:08:47.553Z,58.21
2019-04-06T22:11:18.941Z,57.91
2019-04-06T22:13:50.305Z,57.60
2019-04-06T22:16:22.317Z,57.26
2019-04-06T22:18:53.707Z,56.24
2019-04-06T22:21:25.123Z,56.98
2019-04-06T22:23:56.532Z,56.82
2019-04-06T22:26:28.417Z,56.87
2019-04-06T22:29:02.764Z,56.71
2019-04-06T22:31:34.244Z,55.99
2019-04-06T22:34:05.790Z,56.68
2019-04-06T22:36:37.201Z,57.63
2019-04-06T22:39:11.134Z,58.44
2019-04-06T22:41:43.337Z,59.14
2019-04-06T22:44:15.376Z,59.13
2019-04-06T22:46:48.559Z,59.65
2019-04-06T22:49:20.419Z,59.90
2019-04-06T22:51:52.798Z,59.47
2019-04-06T22:54:24.657Z,59.16
2019-04-06T22:56:56.532Z,59.23
2019-04-06T22:59:28.008Z,58.17
2019-04-06T23:02:00.130Z,59.20
2019-04-06T23:04:50.652Z,58.55
2019-04-06T23:07:21.971Z,59.03
2019-04-06T23:09:53.348Z,59.29
2019-04-06T23:12:25.508Z,59.51
2019-04-06T23:14:57.759Z,60.07
2019-04-06T23:17:29.228Z,59.16
2019-04-06T23:20:01.189Z,59.56
2019-04-06T23:22:33.150Z,59.38
2019-04-06T23:25:09.402Z,59.56
2019-04-06T23:27:41.227Z,59.41
2019-04-06T23:30:13.149Z,59.88
2019-04-06T23:32:45.595Z,60.17
2019-04-06T23:35:16.983Z,60.38
2019-04-06T23:37:49.213Z,61.03
2019-04-06T23:40:21.478Z,60.75
2019-04-06T23:42:54.940Z,61.20
2019-04-06T23:45:27.514Z,61.85
2019-04-06T23:47:59.437Z,62.28
2019-04-06T23:50:31.445Z,62.72
2019-04-06T23:53:04.245Z,63.15
2019-04-06T23:55:41.432Z,62.70
2019-04-06T23:58:15.263Z,63.12
